sensor_id;sensor_type;location;lat;lon;timestamp;P1;durP1;ratioP1;P2;durP2;ratioP2
44440;SDS011;30146;52.268;20.944;2023-03-03T00:01:17;87.20;;;39.20;;
44440;SDS011;30146;52.268;20.944;2023-03-03T00:03:48;89.30;;;40.00;;
44440;SDS011;30146;52.268;20.944;2023-03-03T00:06:19;88.80;;;42.80;;
44440;SDS011;30146;52.268;20.944;2023-03-03T00:08:51;92.50;;;42.00;;
44440;SDS011;30146;52.268;20.944;2023-03-03T00:11:22;95.00;;;42.90;;
44440;SDS011;30146;52.268;20.944;2023-03-03T00:13:54;88.10;;;41.20;;
44440;SDS011;30146;52.268;20.944;2023-03-03T00:16:28;90.20;;;41.10;;
44440;SDS011;30146;52.268;20.944;2023-03-03T00:19:06;88.60;;;41.00;;
44440;SDS011;30146;52.268;20.944;2023-03-03T00:21:44;88.30;;;38.60;;
44440;SDS011;30146;52.268;20.944;2023-03-03T00:24:17;82.10;;;37.40;;
44440;SDS011;30146;52.268;20.944;2023-03-03T00:26:50;86.30;;;37.60;;
44440;SDS011;30146;52.268;20.944;2023-03-03T00:29:34;83.30;;;37.10;;
44440;SDS011;30146;52.268;20.944;2023-03-03T00:32:19;83.00;;;37.80;;
44440;SDS011;30146;52.268;20.944;2023-03-03T00:34:53;78.20;;;36.80;;
44440;SDS011;30146;52.268;20.944;2023-03-03T00:37:30;88.80;;;37.70;;
44440;SDS011;30146;52.268;20.944;2023-03-03T00:40:08;86.70;;;37.80;;
44440;SDS011;30146;52.268;20.944;2023-03-03T00:42:52;78.10;;;36.90;;
44440;SDS011;30146;52.268;20.944;2023-03-03T00:45:27;83.40;;;40.00;;
44440;SDS011;30146;52.268;20.944;2023-03-03T00:48:10;84.60;;;37.40;;
44440;SDS011;30146;52.268;20.944;2023-03-03T00:50:51;95.20;;;39.90;;
44440;SDS011;30146;52.268;20.944;2023-03-03T00:53:23;75.00;;;39.30;;
44440;SDS011;30146;52.268;20.944;2023-03-03T00:55:55;74.10;;;37.90;;
44440;SDS011;30146;52.268;20.944;2023-03-03T00:58:26;76.30;;;35.70;;
44440;SDS011;30146;52.268;20.944;2023-03-03T01:00:58;70.90;;;34.40;;
44440;SDS011;30146;52.268;20.944;2023-03-03T01:03:37;82.80;;;38.00;;
44440;SDS011;30146;52.268;20.944;2023-03-03T01:06:08;72.50;;;34.80;;
44440;SDS011;30146;52.268;20.944;2023-03-03T01:08:40;75.30;;;33.70;;
44440;SDS011;30146;52.268;20.944;2023-03-03T01:11:11;79.70;;;34.40;;
44440;SDS011;30146;52.268;20.944;2023-03-03T01:13:44;70.90;;;33.50;;
44440;SDS011;30146;52.268;20.944;2023-03-03T01:16:18;74.50;;;34.20;;
44440;SDS011;30146;52.268;20.944;2023-03-03T01:18:50;69.60;;;32.50;;
44440;SDS011;30146;52.268;20.944;2023-03-03T01:21:22;64.40;;;33.40;;
44440;SDS011;30146;52.268;20.944;2023-03-03T01:23:52;69.50;;;35.00;;
44440;SDS011;30146;52.268;20.944;2023-03-03T01:26:23;72.90;;;36.10;;
44440;SDS011;30146;52.268;20.944;2023-03-03T01:28:54;66.10;;;33.20;;
44440;SDS011;30146;52.268;20.944;2023-03-03T01:31:25;63.00;;;31.90;;
44440;SDS011;30146;52.268;20.944;2023-03-03T01:33:56;78.50;;;37.20;;
44440;SDS011;30146;52.268;20.944;2023-03-03T01:36:27;64.80;;;33.60;;
44440;SDS011;30146;52.268;20.944;2023-03-03T01:38:59;79.30;;;37.00;;
44440;SDS011;30146;52.268;20.944;2023-03-03T01:41:30;64.10;;;31.20;;
44440;SDS011;30146;52.268;20.944;2023-03-03T01:44:01;66.40;;;31.20;;
44440;SDS011;30146;52.268;20.944;2023-03-03T01:46:45;67.90;;;31.80;;
44440;SDS011;30146;52.268;20.944;2023-03-03T01:49:20;64.20;;;31.10;;
44440;SDS011;30146;52.268;20.944;2023-03-03T01:51:55;69.10;;;33.90;;
44440;SDS011;30146;52.268;20.944;2023-03-03T01:54:30;65.70;;;30.80;;
44440;SDS011;30146;52.268;20.944;2023-03-03T01:57:09;64.00;;;30.40;;
44440;SDS011;30146;52.268;20.944;2023-03-03T01:59:44;64.70;;;32.30;;
44440;SDS011;30146;52.268;20.944;2023-03-03T02:02:18;59.40;;;31.20;;
44440;SDS011;30146;52.268;20.944;2023-03-03T02:04:50;74.10;;;31.80;;
44440;SDS011;30146;52.268;20.944;2023-03-03T02:07:20;62.60;;;32.30;;
44440;SDS011;30146;52.268;20.944;2023-03-03T02:09:56;61.20;;;32.60;;
44440;SDS011;30146;52.268;20.944;2023-03-03T02:12:33;67.40;;;33.70;;
44440;SDS011;30146;52.268;20.944;2023-03-03T02:17:55;60.50;;;30.80;;
44440;SDS011;30146;52.268;20.944;2023-03-03T02:20:33;63.40;;;32.20;;
44440;SDS011;30146;52.268;20.944;2023-03-03T02:23:15;64.40;;;31.70;;
44440;SDS011;30146;52.268;20.944;2023-03-03T02:25:52;58.80;;;30.10;;
44440;SDS011;30146;52.268;20.944;2023-03-03T02:28:39;60.60;;;31.90;;
44440;SDS011;30146;52.268;20.944;2023-03-03T02:31:11;58.10;;;30.00;;
44440;SDS011;30146;52.268;20.944;2023-03-03T02:33:45;66.40;;;32.60;;
44440;SDS011;30146;52.268;20.944;2023-03-03T02:36:19;68.00;;;30.80;;
44440;SDS011;30146;52.268;20.944;2023-03-03T02:38:52;56.20;;;31.20;;
44440;SDS011;30146;52.268;20.944;2023-03-03T02:41:31;63.90;;;33.70;;
44440;SDS011;30146;52.268;20.944;2023-03-03T02:44:08;60.00;;;31.50;;
44440;SDS011;30146;52.268;20.944;2023-03-03T02:46:44;61.40;;;32.30;;
44440;SDS011;30146;52.268;20.944;2023-03-03T02:49:17;57.40;;;32.10;;
44440;SDS011;30146;52.268;20.944;2023-03-03T02:51:50;60.40;;;31.00;;
44440;SDS011;30146;52.268;20.944;2023-03-03T02:54:23;62.40;;;32.60;;
44440;SDS011;30146;52.268;20.944;2023-03-03T02:56:55;70.60;;;32.40;;
44440;SDS011;30146;52.268;20.944;2023-03-03T02:59:27;61.60;;;33.60;;
44440;SDS011;30146;52.268;20.944;2023-03-03T03:04:32;59.10;;;28.90;;
44440;SDS011;30146;52.268;20.944;2023-03-03T03:07:04;67.00;;;31.90;;
44440;SDS011;30146;52.268;20.944;2023-03-03T03:09:36;60.30;;;30.50;;
44440;SDS011;30146;52.268;20.944;2023-03-03T03:12:07;62.30;;;32.40;;
44440;SDS011;30146;52.268;20.944;2023-03-03T03:14:39;67.30;;;33.50;;
44440;SDS011;30146;52.268;20.944;2023-03-03T03:17:10;63.40;;;32.90;;
44440;SDS011;30146;52.268;20.944;2023-03-03T03:19:43;71.10;;;34.20;;
44440;SDS011;30146;52.268;20.944;2023-03-03T03:22:14;83.10;;;35.30;;
44440;SDS011;30146;52.268;20.944;2023-03-03T03:24:46;68.20;;;33.80;;
44440;SDS011;30146;52.268;20.944;2023-03-03T03:27:18;71.60;;;34.30;;
44440;SDS011;30146;52.268;20.944;2023-03-03T03:29:50;70.40;;;33.30;;
44440;SDS011;30146;52.268;20.944;2023-03-03T03:32:22;72.00;;;33.10;;
44440;SDS011;30146;52.268;20.944;2023-03-03T03:34:53;73.90;;;33.90;;
44440;SDS011;30146;52.268;20.944;2023-03-03T03:37:26;65.60;;;32.60;;
44440;SDS011;30146;52.268;20.944;2023-03-03T03:39:57;67.50;;;34.00;;
44440;SDS011;30146;52.268;20.944;2023-03-03T03:42:30;67.70;;;33.00;;
44440;SDS011;30146;52.268;20.944;2023-03-03T03:45:00;68.10;;;33.40;;
44440;SDS011;30146;52.268;20.944;2023-03-03T03:47:32;73.20;;;31.80;;
44440;SDS011;30146;52.268;20.944;2023-03-03T03:50:04;65.90;;;32.60;;
44440;SDS011;30146;52.268;20.944;2023-03-03T03:52:37;62.90;;;31.80;;
44440;SDS011;30146;52.268;20.944;2023-03-03T03:55:10;67.80;;;31.30;;
44440;SDS011;30146;52.268;20.944;2023-03-03T03:57:42;71.40;;;32.00;;
44440;SDS011;30146;52.268;20.944;2023-03-03T04:00:13;67.70;;;35.10;;
44440;SDS011;30146;52.268;20.944;2023-03-03T04:02:49;67.50;;;32.20;;
44440;SDS011;30146;52.268;20.944;2023-03-03T04:05:21;70.70;;;32.20;;
44440;SDS011;30146;52.268;20.944;2023-03-03T04:07:53;78.60;;;33.00;;
44440;SDS011;30146;52.268;20.944;2023-03-03T04:10:24;62.50;;;32.80;;
44440;SDS011;30146;52.268;20.944;2023-03-03T04:12:55;69.30;;;33.30;;
44440;SDS011;30146;52.268;20.944;2023-03-03T04:15:27;70.50;;;34.20;;
44440;SDS011;30146;52.268;20.944;2023-03-03T04:17:59;70.80;;;34.40;;
44440;SDS011;30146;52.268;20.944;2023-03-03T04:20:30;73.70;;;36.30;;
44440;SDS011;30146;52.268;20.944;2023-03-03T04:23:01;79.10;;;34.70;;
44440;SDS011;30146;52.268;20.944;2023-03-03T04:25:32;69.10;;;33.80;;
44440;SDS011;30146;52.268;20.944;2023-03-03T04:28:11;72.80;;;33.50;;
44440;SDS011;30146;52.268;20.944;2023-03-03T04:30:41;68.70;;;32.70;;
44440;SDS011;30146;52.268;20.944;2023-03-03T04:33:14;77.80;;;32.80;;
44440;SDS011;30146;52.268;20.944;2023-03-03T04:35:45;76.40;;;34.90;;
44440;SDS011;30146;52.268;20.944;2023-03-03T04:38:17;78.10;;;33.10;;
44440;SDS011;30146;52.268;20.944;2023-03-03T04:40:48;71.40;;;33.10;;
44440;SDS011;30146;52.268;20.944;2023-03-03T04:43:19;75.60;;;35.00;;
44440;SDS011;30146;52.268;20.944;2023-03-03T04:45:50;74.40;;;34.10;;
44440;SDS011;30146;52.268;20.944;2023-03-03T04:48:21;74.20;;;35.00;;
44440;SDS011;30146;52.268;20.944;2023-03-03T04:50:52;73.50;;;35.40;;
44440;SDS011;30146;52.268;20.944;2023-03-03T04:53:23;78.80;;;38.00;;
44440;SDS011;30146;52.268;20.944;2023-03-03T04:55:54;87.80;;;38.80;;
44440;SDS011;30146;52.268;20.944;2023-03-03T04:58:25;75.30;;;36.40;;
44440;SDS011;30146;52.268;20.944;2023-03-03T05:00:56;81.30;;;38.50;;
44440;SDS011;30146;52.268;20.944;2023-03-03T05:03:28;78.70;;;39.30;;
44440;SDS011;30146;52.268;20.944;2023-03-03T05:05:59;85.60;;;40.10;;
44440;SDS011;30146;52.268;20.944;2023-03-03T05:08:30;76.00;;;36.10;;
44440;SDS011;30146;52.268;20.944;2023-03-03T05:11:01;82.10;;;37.20;;
44440;SDS011;30146;52.268;20.944;2023-03-03T05:13:32;84.30;;;40.90;;
44440;SDS011;30146;52.268;20.944;2023-03-03T05:16:03;84.80;;;38.70;;
44440;SDS011;30146;52.268;20.944;2023-03-03T05:18:35;84.20;;;38.60;;
44440;SDS011;30146;52.268;20.944;2023-03-03T05:21:06;91.30;;;40.50;;
44440;SDS011;30146;52.268;20.944;2023-03-03T05:23:37;88.20;;;38.00;;
44440;SDS011;30146;52.268;20.944;2023-03-03T05:26:08;76.20;;;37.60;;
44440;SDS011;30146;52.268;20.944;2023-03-03T05:28:38;88.40;;;37.50;;
44440;SDS011;30146;52.268;20.944;2023-03-03T05:31:09;79.40;;;37.80;;
44440;SDS011;30146;52.268;20.944;2023-03-03T05:33:40;89.80;;;39.20;;
44440;SDS011;30146;52.268;20.944;2023-03-03T05:36:11;88.80;;;40.60;;
44440;SDS011;30146;52.268;20.944;2023-03-03T05:38:42;82.80;;;38.70;;
44440;SDS011;30146;52.268;20.944;2023-03-03T05:41:12;97.00;;;40.20;;
44440;SDS011;30146;52.268;20.944;2023-03-03T05:43:43;97.80;;;42.00;;
44440;SDS011;30146;52.268;20.944;2023-03-03T05:46:14;95.40;;;46.20;;
44440;SDS011;30146;52.268;20.944;2023-03-03T05:48:45;106.40;;;46.80;;
44440;SDS011;30146;52.268;20.944;2023-03-03T05:51:16;96.00;;;45.20;;
44440;SDS011;30146;52.268;20.944;2023-03-03T05:53:47;100.10;;;44.00;;
44440;SDS011;30146;52.268;20.944;2023-03-03T05:56:17;108.90;;;47.20;;
44440;SDS011;30146;52.268;20.944;2023-03-03T05:58:48;104.40;;;44.80;;
44440;SDS011;30146;52.268;20.944;2023-03-03T06:01:19;99.90;;;45.90;;
44440;SDS011;30146;52.268;20.944;2023-03-03T06:03:49;101.40;;;42.10;;
44440;SDS011;30146;52.268;20.944;2023-03-03T06:06:20;99.60;;;41.60;;
44440;SDS011;30146;52.268;20.944;2023-03-03T06:08:51;99.30;;;44.10;;
44440;SDS011;30146;52.268;20.944;2023-03-03T06:11:24;101.10;;;44.20;;
44440;SDS011;30146;52.268;20.944;2023-03-03T06:13:54;95.70;;;43.60;;
44440;SDS011;30146;52.268;20.944;2023-03-03T06:16:26;105.90;;;47.30;;
44440;SDS011;30146;52.268;20.944;2023-03-03T06:18:57;115.20;;;47.70;;
44440;SDS011;30146;52.268;20.944;2023-03-03T06:21:28;117.30;;;49.30;;
44440;SDS011;30146;52.268;20.944;2023-03-03T06:23:59;121.70;;;48.90;;
44440;SDS011;30146;52.268;20.944;2023-03-03T06:26:29;108.00;;;43.80;;
44440;SDS011;30146;52.268;20.944;2023-03-03T06:29:00;105.80;;;45.20;;
44440;SDS011;30146;52.268;20.944;2023-03-03T06:31:31;106.50;;;45.90;;
44440;SDS011;30146;52.268;20.944;2023-03-03T06:34:02;102.60;;;43.30;;
44440;SDS011;30146;52.268;20.944;2023-03-03T06:36:33;96.90;;;40.30;;
44440;SDS011;30146;52.268;20.944;2023-03-03T06:39:04;89.30;;;38.80;;
44440;SDS011;30146;52.268;20.944;2023-03-03T06:41:35;90.30;;;37.50;;
44440;SDS011;30146;52.268;20.944;2023-03-03T06:44:08;84.70;;;35.50;;
44440;SDS011;30146;52.268;20.944;2023-03-03T06:46:39;90.30;;;36.70;;
44440;SDS011;30146;52.268;20.944;2023-03-03T06:49:10;92.50;;;36.80;;
44440;SDS011;30146;52.268;20.944;2023-03-03T06:51:41;90.20;;;39.70;;
44440;SDS011;30146;52.268;20.944;2023-03-03T06:54:14;83.00;;;38.90;;
44440;SDS011;30146;52.268;20.944;2023-03-03T06:56:46;83.30;;;37.30;;
44440;SDS011;30146;52.268;20.944;2023-03-03T06:59:22;73.50;;;34.80;;
44440;SDS011;30146;52.268;20.944;2023-03-03T07:01:55;69.20;;;34.70;;
44440;SDS011;30146;52.268;20.944;2023-03-03T07:04:30;78.20;;;33.80;;
44440;SDS011;30146;52.268;20.944;2023-03-03T07:07:10;74.70;;;31.30;;
44440;SDS011;30146;52.268;20.944;2023-03-03T07:09:49;61.80;;;26.50;;
44440;SDS011;30146;52.268;20.944;2023-03-03T07:12:22;73.10;;;30.90;;
44440;SDS011;30146;52.268;20.944;2023-03-03T07:14:56;60.00;;;26.70;;
44440;SDS011;30146;52.268;20.944;2023-03-03T07:17:43;57.50;;;26.80;;
44440;SDS011;30146;52.268;20.944;2023-03-03T07:22:50;43.90;;;20.00;;
44440;SDS011;30146;52.268;20.944;2023-03-03T07:25:24;60.70;;;27.10;;
44440;SDS011;30146;52.268;20.944;2023-03-03T07:28:06;59.70;;;27.20;;
44440;SDS011;30146;52.268;20.944;2023-03-03T07:30:47;64.40;;;28.80;;
44440;SDS011;30146;52.268;20.944;2023-03-03T07:33:22;67.70;;;30.30;;
44440;SDS011;30146;52.268;20.944;2023-03-03T07:35:55;65.20;;;28.20;;
44440;SDS011;30146;52.268;20.944;2023-03-03T07:38:34;70.50;;;31.30;;
44440;SDS011;30146;52.268;20.944;2023-03-03T07:41:11;70.20;;;31.10;;
44440;SDS011;30146;52.268;20.944;2023-03-03T07:43:50;61.00;;;28.10;;
44440;SDS011;30146;52.268;20.944;2023-03-03T07:46:36;62.20;;;30.60;;
44440;SDS011;30146;52.268;20.944;2023-03-03T07:49:15;59.00;;;26.70;;
44440;SDS011;30146;52.268;20.944;2023-03-03T07:51:53;62.20;;;30.70;;
44440;SDS011;30146;52.268;20.944;2023-03-03T07:54:30;73.90;;;31.60;;
44440;SDS011;30146;52.268;20.944;2023-03-03T07:57:13;60.10;;;27.80;;
44440;SDS011;30146;52.268;20.944;2023-03-03T07:59:51;63.00;;;29.10;;
44440;SDS011;30146;52.268;20.944;2023-03-03T08:02:40;67.30;;;28.50;;
44440;SDS011;30146;52.268;20.944;2023-03-03T08:05:28;60.90;;;26.70;;
44440;SDS011;30146;52.268;20.944;2023-03-03T08:08:17;57.90;;;26.10;;
44440;SDS011;30146;52.268;20.944;2023-03-03T08:10:56;61.10;;;27.70;;
44440;SDS011;30146;52.268;20.944;2023-03-03T08:13:28;58.20;;;26.70;;
44440;SDS011;30146;52.268;20.944;2023-03-03T08:16:20;58.30;;;27.50;;
44440;SDS011;30146;52.268;20.944;2023-03-03T08:18:59;64.60;;;29.40;;
44440;SDS011;30146;52.268;20.944;2023-03-03T08:21:33;70.00;;;31.70;;
44440;SDS011;30146;52.268;20.944;2023-03-03T08:24:06;68.20;;;29.30;;
44440;SDS011;30146;52.268;20.944;2023-03-03T08:26:37;60.00;;;28.90;;
44440;SDS011;30146;52.268;20.944;2023-03-03T08:29:08;53.20;;;26.20;;
44440;SDS011;30146;52.268;20.944;2023-03-03T08:31:40;53.60;;;28.60;;
44440;SDS011;30146;52.268;20.944;2023-03-03T08:34:11;48.30;;;27.00;;
44440;SDS011;30146;52.268;20.944;2023-03-03T08:36:42;56.80;;;27.60;;
44440;SDS011;30146;52.268;20.944;2023-03-03T08:39:14;59.80;;;26.90;;
44440;SDS011;30146;52.268;20.944;2023-03-03T08:41:45;63.60;;;29.40;;
44440;SDS011;30146;52.268;20.944;2023-03-03T08:44:16;60.20;;;27.70;;
44440;SDS011;30146;52.268;20.944;2023-03-03T08:46:56;56.90;;;27.60;;
44440;SDS011;30146;52.268;20.944;2023-03-03T08:49:28;69.90;;;29.80;;
44440;SDS011;30146;52.268;20.944;2023-03-03T08:52:00;66.20;;;29.60;;
44440;SDS011;30146;52.268;20.944;2023-03-03T08:54:32;64.50;;;28.30;;
44440;SDS011;30146;52.268;20.944;2023-03-03T08:57:03;53.20;;;28.30;;
44440;SDS011;30146;52.268;20.944;2023-03-03T08:59:35;54.30;;;27.30;;
44440;SDS011;30146;52.268;20.944;2023-03-03T09:02:07;57.60;;;26.20;;
44440;SDS011;30146;52.268;20.944;2023-03-03T09:04:39;53.30;;;25.50;;
44440;SDS011;30146;52.268;20.944;2023-03-03T09:07:09;51.00;;;25.50;;
44440;SDS011;30146;52.268;20.944;2023-03-03T09:09:41;50.40;;;24.80;;
44440;SDS011;30146;52.268;20.944;2023-03-03T09:12:14;57.20;;;27.40;;
44440;SDS011;30146;52.268;20.944;2023-03-03T09:14:47;55.50;;;26.90;;
44440;SDS011;30146;52.268;20.944;2023-03-03T09:17:21;46.20;;;23.60;;
44440;SDS011;30146;52.268;20.944;2023-03-03T09:19:56;39.90;;;21.80;;
44440;SDS011;30146;52.268;20.944;2023-03-03T09:22:31;49.80;;;23.50;;
44440;SDS011;30146;52.268;20.944;2023-03-03T09:25:13;45.90;;;21.80;;
44440;SDS011;30146;52.268;20.944;2023-03-03T09:27:48;43.50;;;23.40;;
44440;SDS011;30146;52.268;20.944;2023-03-03T09:30:32;48.20;;;23.50;;
44440;SDS011;30146;52.268;20.944;2023-03-03T09:33:18;46.30;;;24.20;;
44440;SDS011;30146;52.268;20.944;2023-03-03T09:35:53;47.10;;;23.40;;
44440;SDS011;30146;52.268;20.944;2023-03-03T09:38:31;50.90;;;24.90;;
44440;SDS011;30146;52.268;20.944;2023-03-03T09:41:15;51.50;;;24.30;;
44440;SDS011;30146;52.268;20.944;2023-03-03T09:44:02;52.70;;;25.00;;
44440;SDS011;30146;52.268;20.944;2023-03-03T09:46:59;43.90;;;23.60;;
44440;SDS011;30146;52.268;20.944;2023-03-03T09:49:43;44.30;;;20.60;;
44440;SDS011;30146;52.268;20.944;2023-03-03T09:52:29;43.90;;;22.50;;
44440;SDS011;30146;52.268;20.944;2023-03-03T09:55:10;42.80;;;21.80;;
44440;SDS011;30146;52.268;20.944;2023-03-03T09:57:57;50.00;;;22.80;;
44440;SDS011;30146;52.268;20.944;2023-03-03T10:00:42;49.40;;;23.30;;
44440;SDS011;30146;52.268;20.944;2023-03-03T10:06:23;52.80;;;23.40;;
44440;SDS011;30146;52.268;20.944;2023-03-03T10:09:00;47.20;;;24.00;;
44440;SDS011;30146;52.268;20.944;2023-03-03T10:11:39;47.00;;;23.10;;
44440;SDS011;30146;52.268;20.944;2023-03-03T10:14:27;41.40;;;20.80;;
44440;SDS011;30146;52.268;20.944;2023-03-03T10:17:20;42.80;;;21.30;;
44440;SDS011;30146;52.268;20.944;2023-03-03T10:20:01;41.30;;;21.00;;
44440;SDS011;30146;52.268;20.944;2023-03-03T10:22:43;37.40;;;21.00;;
44440;SDS011;30146;52.268;20.944;2023-03-03T10:25:24;43.30;;;22.50;;
44440;SDS011;30146;52.268;20.944;2023-03-03T10:31:05;48.70;;;23.10;;
44440;SDS011;30146;52.268;20.944;2023-03-03T10:33:47;43.10;;;23.10;;
44440;SDS011;30146;52.268;20.944;2023-03-03T10:36:35;49.10;;;24.30;;
44440;SDS011;30146;52.268;20.944;2023-03-03T10:39:19;41.50;;;22.50;;
44440;SDS011;30146;52.268;20.944;2023-03-03T10:42:29;44.20;;;23.50;;
44440;SDS011;30146;52.268;20.944;2023-03-03T10:45:21;37.90;;;20.90;;
44440;SDS011;30146;52.268;20.944;2023-03-03T10:48:16;35.90;;;20.20;;
44440;SDS011;30146;52.268;20.944;2023-03-03T10:51:00;35.20;;;17.50;;
44440;SDS011;30146;52.268;20.944;2023-03-03T10:53:48;40.80;;;19.50;;
44440;SDS011;30146;52.268;20.944;2023-03-03T10:56:34;38.80;;;19.00;;
44440;SDS011;30146;52.268;20.944;2023-03-03T10:59:28;37.10;;;19.90;;
44440;SDS011;30146;52.268;20.944;2023-03-03T11:02:09;42.40;;;21.80;;
44440;SDS011;30146;52.268;20.944;2023-03-03T11:04:52;37.90;;;19.70;;
44440;SDS011;30146;52.268;20.944;2023-03-03T11:07:34;36.10;;;20.60;;
44440;SDS011;30146;52.268;20.944;2023-03-03T11:10:16;37.70;;;20.90;;
44440;SDS011;30146;52.268;20.944;2023-03-03T11:12:55;42.00;;;21.20;;
44440;SDS011;30146;52.268;20.944;2023-03-03T11:15:41;41.90;;;21.50;;
44440;SDS011;30146;52.268;20.944;2023-03-03T11:18:31;43.90;;;22.20;;
44440;SDS011;30146;52.268;20.944;2023-03-03T11:21:14;57.40;;;23.70;;
44440;SDS011;30146;52.268;20.944;2023-03-03T11:23:57;50.20;;;23.90;;
44440;SDS011;30146;52.268;20.944;2023-03-03T11:26:42;42.90;;;22.20;;
44440;SDS011;30146;52.268;20.944;2023-03-03T11:29:31;36.90;;;20.80;;
44440;SDS011;30146;52.268;20.944;2023-03-03T11:32:17;42.70;;;23.00;;
44440;SDS011;30146;52.268;20.944;2023-03-03T11:34:57;43.20;;;22.20;;
44440;SDS011;30146;52.268;20.944;2023-03-03T11:37:37;39.40;;;20.90;;
44440;SDS011;30146;52.268;20.944;2023-03-03T11:40:16;39.70;;;22.80;;
44440;SDS011;30146;52.268;20.944;2023-03-03T11:42:55;42.40;;;23.50;;
44440;SDS011;30146;52.268;20.944;2023-03-03T11:45:34;46.60;;;24.10;;
44440;SDS011;30146;52.268;20.944;2023-03-03T11:48:13;44.80;;;22.20;;
44440;SDS011;30146;52.268;20.944;2023-03-03T11:50:52;44.30;;;23.70;;
44440;SDS011;30146;52.268;20.944;2023-03-03T11:53:30;43.20;;;24.10;;
44440;SDS011;30146;52.268;20.944;2023-03-03T11:56:18;38.70;;;20.50;;
44440;SDS011;30146;52.268;20.944;2023-03-03T11:58:59;48.10;;;23.50;;
44440;SDS011;30146;52.268;20.944;2023-03-03T12:01:43;41.00;;;21.70;;
44440;SDS011;30146;52.268;20.944;2023-03-03T12:04:21;51.10;;;24.40;;
44440;SDS011;30146;52.268;20.944;2023-03-03T12:07:05;39.20;;;22.30;;
44440;SDS011;30146;52.268;20.944;2023-03-03T12:09:50;45.90;;;23.60;;
44440;SDS011;30146;52.268;20.944;2023-03-03T12:12:32;38.80;;;22.20;;
44440;SDS011;30146;52.268;20.944;2023-03-03T12:15:12;47.70;;;23.40;;
44440;SDS011;30146;52.268;20.944;2023-03-03T12:18:00;39.30;;;21.40;;
44440;SDS011;30146;52.268;20.944;2023-03-03T12:20:38;41.70;;;22.90;;
44440;SDS011;30146;52.268;20.944;2023-03-03T12:23:34;44.70;;;20.30;;
44440;SDS011;30146;52.268;20.944;2023-03-03T12:26:15;38.70;;;19.70;;
44440;SDS011;30146;52.268;20.944;2023-03-03T12:28:50;32.50;;;18.00;;
44440;SDS011;30146;52.268;20.944;2023-03-03T12:31:25;33.40;;;18.30;;
44440;SDS011;30146;52.268;20.944;2023-03-03T12:34:07;39.80;;;19.60;;
44440;SDS011;30146;52.268;20.944;2023-03-03T12:36:49;35.70;;;19.50;;
44440;SDS011;30146;52.268;20.944;2023-03-03T12:39:41;32.50;;;18.10;;
44440;SDS011;30146;52.268;20.944;2023-03-03T12:42:22;43.00;;;20.10;;
44440;SDS011;30146;52.268;20.944;2023-03-03T12:45:04;41.80;;;20.80;;
44440;SDS011;30146;52.268;20.944;2023-03-03T12:47:48;40.40;;;22.00;;
44440;SDS011;30146;52.268;20.944;2023-03-03T12:50:32;42.00;;;21.20;;
44440;SDS011;30146;52.268;20.944;2023-03-03T12:53:15;35.80;;;19.10;;
44440;SDS011;30146;52.268;20.944;2023-03-03T12:56:00;36.60;;;19.30;;
44440;SDS011;30146;52.268;20.944;2023-03-03T12:58:37;38.20;;;19.20;;
44440;SDS011;30146;52.268;20.944;2023-03-03T13:01:28;40.10;;;21.10;;
44440;SDS011;30146;52.268;20.944;2023-03-03T13:04:09;36.50;;;18.60;;
44440;SDS011;30146;52.268;20.944;2023-03-03T13:06:46;40.10;;;20.30;;
44440;SDS011;30146;52.268;20.944;2023-03-03T13:09:27;38.70;;;19.40;;
44440;SDS011;30146;52.268;20.944;2023-03-03T13:12:16;39.80;;;18.90;;
44440;SDS011;30146;52.268;20.944;2023-03-03T13:14:59;34.10;;;17.70;;
44440;SDS011;30146;52.268;20.944;2023-03-03T13:20:19;38.90;;;19.70;;
44440;SDS011;30146;52.268;20.944;2023-03-03T13:23:02;38.20;;;20.60;;
44440;SDS011;30146;52.268;20.944;2023-03-03T13:25:41;44.00;;;21.80;;
44440;SDS011;30146;52.268;20.944;2023-03-03T13:28:21;42.00;;;20.70;;
44440;SDS011;30146;52.268;20.944;2023-03-03T13:31:00;37.90;;;19.80;;
44440;SDS011;30146;52.268;20.944;2023-03-03T13:33:37;40.30;;;20.80;;
44440;SDS011;30146;52.268;20.944;2023-03-03T13:36:16;43.60;;;20.30;;
44440;SDS011;30146;52.268;20.944;2023-03-03T13:38:49;40.50;;;18.10;;
44440;SDS011;30146;52.268;20.944;2023-03-03T13:41:24;41.90;;;19.90;;
44440;SDS011;30146;52.268;20.944;2023-03-03T13:44:03;48.40;;;22.30;;
44440;SDS011;30146;52.268;20.944;2023-03-03T13:46:40;37.20;;;19.10;;
44440;SDS011;30146;52.268;20.944;2023-03-03T13:49:21;47.30;;;22.00;;
44440;SDS011;30146;52.268;20.944;2023-03-03T13:52:02;40.30;;;20.00;;
44440;SDS011;30146;52.268;20.944;2023-03-03T13:54:43;40.70;;;20.60;;
44440;SDS011;30146;52.268;20.944;2023-03-03T13:57:22;44.30;;;21.90;;
44440;SDS011;30146;52.268;20.944;2023-03-03T14:00:09;45.70;;;21.60;;
44440;SDS011;30146;52.268;20.944;2023-03-03T14:02:52;51.40;;;25.10;;
44440;SDS011;30146;52.268;20.944;2023-03-03T14:05:39;38.80;;;21.00;;
44440;SDS011;30146;52.268;20.944;2023-03-03T14:08:15;36.60;;;20.40;;
44440;SDS011;30146;52.268;20.944;2023-03-03T14:10:58;38.90;;;20.40;;
44440;SDS011;30146;52.268;20.944;2023-03-03T14:13:40;41.60;;;18.70;;
44440;SDS011;30146;52.268;20.944;2023-03-03T14:16:20;39.80;;;20.10;;
44440;SDS011;30146;52.268;20.944;2023-03-03T14:19:08;38.90;;;18.80;;
44440;SDS011;30146;52.268;20.944;2023-03-03T14:21:46;38.10;;;18.40;;
44440;SDS011;30146;52.268;20.944;2023-03-03T14:24:27;37.60;;;19.20;;
44440;SDS011;30146;52.268;20.944;2023-03-03T14:26:58;39.30;;;18.40;;
44440;SDS011;30146;52.268;20.944;2023-03-03T14:29:49;40.90;;;18.90;;
44440;SDS011;30146;52.268;20.944;2023-03-03T14:32:22;42.60;;;17.80;;
44440;SDS011;30146;52.268;20.944;2023-03-03T14:35:14;43.80;;;18.80;;
44440;SDS011;30146;52.268;20.944;2023-03-03T14:37:49;32.80;;;17.20;;
44440;SDS011;30146;52.268;20.944;2023-03-03T14:40:20;41.00;;;19.30;;
44440;SDS011;30146;52.268;20.944;2023-03-03T14:42:59;38.30;;;17.70;;
44440;SDS011;30146;52.268;20.944;2023-03-03T14:45:35;37.30;;;16.90;;
44440;SDS011;30146;52.268;20.944;2023-03-03T14:48:13;31.40;;;17.00;;
44440;SDS011;30146;52.268;20.944;2023-03-03T14:50:49;39.30;;;18.50;;
44440;SDS011;30146;52.268;20.944;2023-03-03T14:53:28;34.30;;;16.40;;
44440;SDS011;30146;52.268;20.944;2023-03-03T14:56:15;31.60;;;15.70;;
44440;SDS011;30146;52.268;20.944;2023-03-03T14:58:52;32.90;;;17.70;;
44440;SDS011;30146;52.268;20.944;2023-03-03T15:01:40;34.20;;;16.70;;
44440;SDS011;30146;52.268;20.944;2023-03-03T15:04:23;36.60;;;17.20;;
44440;SDS011;30146;52.268;20.944;2023-03-03T15:06:55;34.90;;;17.20;;
44440;SDS011;30146;52.268;20.944;2023-03-03T15:09:28;33.30;;;16.70;;
44440;SDS011;30146;52.268;20.944;2023-03-03T15:12:18;40.80;;;18.10;;
44440;SDS011;30146;52.268;20.944;2023-03-03T15:14:51;33.70;;;17.90;;
44440;SDS011;30146;52.268;20.944;2023-03-03T15:17:33;32.30;;;16.90;;
44440;SDS011;30146;52.268;20.944;2023-03-03T15:20:12;31.70;;;14.90;;